sensor_id;sensor_type;location;lat;lon;timestamp;noise_LAeq;noise_LA_min;noise_LA_max;noise_LA01;noise_LA95
71020;Laerm;58902;51.436;5.980;2023-08-12T00:00:09;51.40;48.97;54.38;;
71020;Laerm;58902;51.436;5.980;2023-08-12T00:00:26;50.22;47.59;53.48;;
71020;Laerm;58902;51.436;5.980;2023-08-12T00:00:36;49.33;47.41;52.14;;
71020;Laerm;58902;51.436;5.980;2023-08-12T00:00:46;48.73;46.68;55.24;;
71020;Laerm;58902;51.436;5.980;2023-08-12T00:00:57;47.91;45.45;50.89;;
71020;Laerm;58902;51.436;5.980;2023-08-12T00:01:07;47.24;45.13;50.92;;
71020;Laerm;58902;51.436;5.980;2023-08-12T00:01:18;46.36;44.17;50.61;;
71020;Laerm;58902;51.436;5.980;2023-08-12T00:01:31;45.87;43.59;50.02;;
71020;Laerm;58902;51.436;5.980;2023-08-12T00:01:41;45.26;42.78;49.26;;
71020;Laerm;58902;51.436;5.980;2023-08-12T00:01:51;44.31;41.94;49.09;;
71020;Laerm;58902;51.436;5.980;2023-08-12T00:02:02;43.88;41.20;48.47;;
71020;Laerm;58902;51.436;5.980;2023-08-12T00:02:12;43.32;40.67;48.56;;
71020;Laerm;58902;51.436;5.980;2023-08-12T00:02:23;42.87;40.03;47.92;;
71020;Laerm;58902;51.436;5.980;2023-08-12T00:02:33;41.99;39.51;48.69;;
71020;Laerm;58902;51.436;5.980;2023-08-12T00:02:43;41.47;38.79;47.74;;
71020;Laerm;58902;51.436;5.980;2023-08-12T00:02:54;41.03;38.10;48.12;;
71020;Laerm;58902;51.436;5.980;2023-08-12T00:03:04;40.61;37.31;48.00;;
71020;Laerm;58902;51.436;5.980;2023-08-12T00:03:15;40.36;36.78;48.82;;
71020;Laerm;58902;51.436;5.980;2023-08-12T00:03:25;40.07;36.16;49.33;;
71020;Laerm;58902;51.436;5.980;2023-08-12T00:03:35;39.78;35.77;48.25;;
71020;Laerm;58902;51.436;5.980;2023-08-12T00:03:46;39.17;35.56;49.06;;
71020;Laerm;58902;51.436;5.980;2023-08-12T00:03:56;38.84;35.46;48.26;;
71020;Laerm;58902;51.436;5.980;2023-08-12T00:04:06;39.00;35.08;47.99;;
71020;Laerm;58902;51.436;5.980;2023-08-12T00:04:17;38.70;34.90;47.85;;
71020;Laerm;58902;51.436;5.980;2023-08-12T00:04:27;38.88;35.48;48.14;;
71020;Laerm;58902;51.436;5.980;2023-08-12T00:04:37;39.25;34.80;48.76;;
71020;Laerm;58902;51.436;5.980;2023-08-12T00:04:48;38.55;34.75;47.30;;
71020;Laerm;58902;51.436;5.980;2023-08-12T00:04:58;38.53;34.58;47.23;;
71020;Laerm;58902;51.436;5.980;2023-08-12T00:05:09;38.45;34.71;48.25;;
71020;Laerm;58902;51.436;5.980;2023-08-12T00:05:22;38.54;34.61;47.81;;
71020;Laerm;58902;51.436;5.980;2023-08-12T00:05:32;38.26;33.92;47.99;;
71020;Laerm;58902;51.436;5.980;2023-08-12T00:05:45;38.13;33.44;50.94;;
71020;Laerm;58902;51.436;5.980;2023-08-12T00:05:56;37.16;33.60;48.81;;
71020;Laerm;58902;51.436;5.980;2023-08-12T00:06:06;37.21;33.35;51.34;;
71020;Laerm;58902;51.436;5.980;2023-08-12T00:06:17;37.11;34.04;47.53;;
71020;Laerm;58902;51.436;5.980;2023-08-12T00:06:27;37.44;33.90;47.63;;
71020;Laerm;58902;51.436;5.980;2023-08-12T00:06:38;37.40;33.83;47.68;;
71020;Laerm;58902;51.436;5.980;2023-08-12T00:06:49;37.60;33.94;48.78;;
71020;Laerm;58902;51.436;5.980;2023-08-12T00:06:59;37.81;34.55;51.55;;
71020;Laerm;58902;51.436;5.980;2023-08-12T00:07:10;38.06;35.52;45.94;;
71020;Laerm;58902;51.436;5.980;2023-08-12T00:07:20;38.97;36.19;54.34;;
71020;Laerm;58902;51.436;5.980;2023-08-12T00:07:30;38.45;36.20;45.18;;
71020;Laerm;58902;51.436;5.980;2023-08-12T00:07:42;38.46;36.06;42.18;;
71020;Laerm;58902;51.436;5.980;2023-08-12T00:07:53;38.89;36.57;45.49;;
71020;Laerm;58902;51.436;5.980;2023-08-12T00:08:03;38.98;36.88;48.90;;
71020;Laerm;58902;51.436;5.980;2023-08-12T00:08:13;39.10;36.96;45.97;;
71020;Laerm;58902;51.436;5.980;2023-08-12T00:08:24;39.37;37.59;41.88;;
71020;Laerm;58902;51.436;5.980;2023-08-12T00:08:34;39.30;37.64;42.19;;
71020;Laerm;58902;51.436;5.980;2023-08-12T00:08:44;39.30;37.02;43.12;;
71020;Laerm;58902;51.436;5.980;2023-08-12T00:08:55;39.39;36.83;43.31;;
71020;Laerm;58902;51.436;5.980;2023-08-12T00:09:05;39.66;36.98;49.26;;
71020;Laerm;58902;51.436;5.980;2023-08-12T00:09:15;39.57;37.52;45.21;;
71020;Laerm;58902;51.436;5.980;2023-08-12T00:09:26;39.92;37.60;44.93;;
71020;Laerm;58902;51.436;5.980;2023-08-12T00:09:36;40.85;37.85;43.49;;
71020;Laerm;58902;51.436;5.980;2023-08-12T00:09:46;42.17;39.70;44.70;;
71020;Laerm;58902;51.436;5.980;2023-08-12T00:09:56;43.08;41.31;45.28;;
71020;Laerm;58902;51.436;5.980;2023-08-12T00:10:07;43.70;41.34;47.36;;
71020;Laerm;58902;51.436;5.980;2023-08-12T00:10:18;44.47;42.42;46.85;;
71020;Laerm;58902;51.436;5.980;2023-08-12T00:10:29;43.97;42.39;49.86;;
71020;Laerm;58902;51.436;5.980;2023-08-12T00:10:39;43.78;41.97;47.68;;
71020;Laerm;58902;51.436;5.980;2023-08-12T00:10:49;43.98;42.21;46.30;;
71020;Laerm;58902;51.436;5.980;2023-08-12T00:11:00;44.15;42.68;49.49;;
71020;Laerm;58902;51.436;5.980;2023-08-12T00:11:10;43.24;41.52;47.05;;
71020;Laerm;58902;51.436;5.980;2023-08-12T00:11:20;42.68;41.03;46.50;;
71020;Laerm;58902;51.436;5.980;2023-08-12T00:11:31;42.59;40.86;47.57;;
71020;Laerm;58902;51.436;5.980;2023-08-12T00:11:41;42.09;39.96;48.02;;
71020;Laerm;58902;51.436;5.980;2023-08-12T00:11:51;41.26;38.36;46.87;;
71020;Laerm;58902;51.436;5.980;2023-08-12T00:12:02;40.91;38.37;47.52;;
71020;Laerm;58902;51.436;5.980;2023-08-12T00:12:12;41.18;37.96;47.28;;
71020;Laerm;58902;51.436;5.980;2023-08-12T00:12:22;41.84;38.09;48.44;;
71020;Laerm;58902;51.436;5.980;2023-08-12T00:12:35;43.87;38.90;49.98;;
71020;Laerm;58902;51.436;5.980;2023-08-12T00:12:46;43.77;39.81;51.32;;
71020;Laerm;58902;51.436;5.980;2023-08-12T00:12:56;42.85;38.16;49.33;;
71020;Laerm;58902;51.436;5.980;2023-08-12T00:13:07;41.67;37.96;49.09;;
71020;Laerm;58902;51.436;5.980;2023-08-12T00:13:17;40.84;37.62;48.46;;
71020;Laerm;58902;51.436;5.980;2023-08-12T00:13:28;40.09;36.76;48.36;;
71020;Laerm;58902;51.436;5.980;2023-08-12T00:13:38;39.52;36.11;47.28;;
71020;Laerm;58902;51.436;5.980;2023-08-12T00:13:48;39.19;35.63;46.36;;
71020;Laerm;58902;51.436;5.980;2023-08-12T00:13:59;39.29;35.89;47.05;;
71020;Laerm;58902;51.436;5.980;2023-08-12T00:14:09;39.23;36.34;49.44;;
71020;Laerm;58902;51.436;5.980;2023-08-12T00:14:19;39.72;35.92;50.25;;
71020;Laerm;58902;51.436;5.980;2023-08-12T00:14:30;39.47;36.44;48.45;;
71020;Laerm;58902;51.436;5.980;2023-08-12T00:14:40;39.28;36.16;46.79;;
71020;Laerm;58902;51.436;5.980;2023-08-12T00:14:50;38.99;35.80;48.86;;
71020;Laerm;58902;51.436;5.980;2023-08-12T00:15:01;38.48;35.65;46.28;;
71020;Laerm;58902;51.436;5.980;2023-08-12T00:15:12;39.48;35.61;48.89;;
71020;Laerm;58902;51.436;5.980;2023-08-12T00:15:23;38.79;35.19;48.94;;
71020;Laerm;58902;51.436;5.980;2023-08-12T00:15:33;37.90;34.07;46.95;;
71020;Laerm;58902;51.436;5.980;2023-08-12T00:15:44;37.24;34.08;46.81;;
71020;Laerm;58902;51.436;5.980;2023-08-12T00:15:54;37.20;33.10;47.19;;
71020;Laerm;58902;51.436;5.980;2023-08-12T00:16:05;36.93;33.01;47.00;;
71020;Laerm;58902;51.436;5.980;2023-08-12T00:16:16;36.89;32.71;47.57;;
71020;Laerm;58902;51.436;5.980;2023-08-12T00:16:26;36.47;33.30;46.38;;
71020;Laerm;58902;51.436;5.980;2023-08-12T00:16:36;36.76;32.78;48.56;;
71020;Laerm;58902;51.436;5.980;2023-08-12T00:16:47;36.36;32.51;47.53;;
71020;Laerm;58902;51.436;5.980;2023-08-12T00:16:57;35.91;32.03;48.05;;
71020;Laerm;58902;51.436;5.980;2023-08-12T00:17:07;36.10;31.89;46.71;;
71020;Laerm;58902;51.436;5.980;2023-08-12T00:17:18;35.72;31.97;46.87;;
71020;Laerm;58902;51.436;5.980;2023-08-12T00:17:28;35.23;31.92;43.16;;
71020;Laerm;58902;51.436;5.980;2023-08-12T00:17:38;35.43;31.73;44.74;;
71020;Laerm;58902;51.436;5.980;2023-08-12T00:17:52;34.74;31.45;42.96;;
71020;Laerm;58902;51.436;5.980;2023-08-12T00:18:02;34.88;31.16;44.89;;
71020;Laerm;58902;51.436;5.980;2023-08-12T00:18:16;35.05;31.24;45.81;;
71020;Laerm;58902;51.436;5.980;2023-08-12T00:18:27;34.59;31.07;44.92;;
71020;Laerm;58902;51.436;5.980;2023-08-12T00:18:38;34.17;30.71;43.00;;
71020;Laerm;58902;51.436;5.980;2023-08-12T00:18:49;34.20;31.07;42.87;;
71020;Laerm;58902;51.436;5.980;2023-08-12T00:18:59;34.61;30.65;45.00;;
71020;Laerm;58902;51.436;5.980;2023-08-12T00:19:10;34.30;30.74;44.41;;
71020;Laerm;58902;51.436;5.980;2023-08-12T00:19:21;34.68;30.92;43.87;;
71020;Laerm;58902;51.436;5.980;2023-08-12T00:19:31;33.73;30.72;42.36;;
71020;Laerm;58902;51.436;5.980;2023-08-12T00:19:41;33.57;30.48;44.63;;
71020;Laerm;58902;51.436;5.980;2023-08-12T00:19:52;33.76;30.49;44.02;;
71020;Laerm;58902;51.436;5.980;2023-08-12T00:20:03;33.65;30.15;43.06;;
71020;Laerm;58902;51.436;5.980;2023-08-12T00:20:17;33.83;30.34;45.65;;
71020;Laerm;58902;51.436;5.980;2023-08-12T00:20:27;33.37;30.53;41.45;;
71020;Laerm;58902;51.436;5.980;2023-08-12T00:20:38;33.60;30.43;42.81;;
71020;Laerm;58902;51.436;5.980;2023-08-12T00:20:48;33.43;30.16;44.40;;
71020;Laerm;58902;51.436;5.980;2023-08-12T00:20:58;33.99;29.71;45.96;;
71020;Laerm;58902;51.436;5.980;2023-08-12T00:21:10;33.06;29.67;44.58;;
71020;Laerm;58902;51.436;5.980;2023-08-12T00:21:20;37.86;29.88;43.49;;
71020;Laerm;58902;51.436;5.980;2023-08-12T00:21:30;37.75;31.24;43.61;;
71020;Laerm;58902;51.436;5.980;2023-08-12T00:21:41;34.16;31.13;42.28;;
71020;Laerm;58902;51.436;5.980;2023-08-12T00:21:52;34.72;32.16;42.88;;
71020;Laerm;58902;51.436;5.980;2023-08-12T00:22:02;38.25;33.47;44.01;;
71020;Laerm;58902;51.436;5.980;2023-08-12T00:22:14;69.96;40.94;77.27;;
71020;Laerm;58902;51.436;5.980;2023-08-12T00:22:25;71.72;65.98;76.46;;
71020;Laerm;58902;51.436;5.980;2023-08-12T00:22:35;69.76;47.26;74.11;;
71020;Laerm;58902;51.436;5.980;2023-08-12T00:22:45;40.30;33.51;50.61;;
71020;Laerm;58902;51.436;5.980;2023-08-12T00:22:56;33.75;30.71;41.71;;
71020;Laerm;58902;51.436;5.980;2023-08-12T00:23:06;32.86;29.65;40.61;;
71020;Laerm;58902;51.436;5.980;2023-08-12T00:23:16;33.43;30.20;42.88;;
71020;Laerm;58902;51.436;5.980;2023-08-12T00:23:27;33.89;30.31;44.36;;
71020;Laerm;58902;51.436;5.980;2023-08-12T00:23:37;33.38;29.50;42.54;;
71020;Laerm;58902;51.436;5.980;2023-08-12T00:23:48;32.06;28.79;42.34;;
71020;Laerm;58902;51.436;5.980;2023-08-12T00:23:59;31.59;28.73;41.37;;
71020;Laerm;58902;51.436;5.980;2023-08-12T00:24:10;32.41;29.06;45.79;;
71020;Laerm;58902;51.436;5.980;2023-08-12T00:24:20;31.69;29.15;41.43;;
71020;Laerm;58902;51.436;5.980;2023-08-12T00:24:30;31.45;28.89;40.81;;
71020;Laerm;58902;51.436;5.980;2023-08-12T00:24:41;31.89;28.82;41.84;;
71020;Laerm;58902;51.436;5.980;2023-08-12T00:24:51;31.86;28.78;43.19;;
71020;Laerm;58902;51.436;5.980;2023-08-12T00:25:02;32.21;28.48;44.06;;
71020;Laerm;58902;51.436;5.980;2023-08-12T00:25:13;32.28;29.13;43.21;;
71020;Laerm;58902;51.436;5.980;2023-08-12T00:25:23;31.80;28.87;41.97;;
71020;Laerm;58902;51.436;5.980;2023-08-12T00:25:33;31.87;28.83;42.48;;
71020;Laerm;58902;51.436;5.980;2023-08-12T00:25:44;31.31;28.86;41.74;;
71020;Laerm;58902;51.436;5.980;2023-08-12T00:25:57;31.50;28.76;43.46;;
71020;Laerm;58902;51.436;5.980;2023-08-12T00:26:08;31.58;28.13;45.59;;
71020;Laerm;58902;51.436;5.980;2023-08-12T00:26:18;30.96;28.56;42.81;;
71020;Laerm;58902;51.436;5.980;2023-08-12T00:26:28;30.67;28.42;40.61;;
71020;Laerm;58902;51.436;5.980;2023-08-12T00:26:39;30.70;28.23;43.13;;
71020;Laerm;58902;51.436;5.980;2023-08-12T00:26:49;30.59;28.11;40.73;;
71020;Laerm;58902;51.436;5.980;2023-08-12T00:26:59;30.76;28.43;42.90;;
71020;Laerm;58902;51.436;5.980;2023-08-12T00:27:10;31.05;28.31;43.03;;
71020;Laerm;58902;51.436;5.980;2023-08-12T00:27:20;30.85;28.64;38.71;;
71020;Laerm;58902;51.436;5.980;2023-08-12T00:27:31;31.15;28.88;43.41;;
71020;Laerm;58902;51.436;5.980;2023-08-12T00:27:41;31.01;28.36;42.28;;
71020;Laerm;58902;51.436;5.980;2023-08-12T00:27:52;32.16;28.80;40.38;;
71020;Laerm;58902;51.436;5.980;2023-08-12T00:28:02;32.86;29.45;42.14;;
71020;Laerm;58902;51.436;5.980;2023-08-12T00:28:12;35.51;32.16;45.20;;
71020;Laerm;58902;51.436;5.980;2023-08-12T00:28:23;31.61;29.54;41.15;;
71020;Laerm;58902;51.436;5.980;2023-08-12T00:28:33;31.45;28.83;44.43;;
71020;Laerm;58902;51.436;5.980;2023-08-12T00:28:44;30.69;28.61;38.93;;
71020;Laerm;58902;51.436;5.980;2023-08-12T00:28:54;30.37;28.43;43.48;;
71020;Laerm;58902;51.436;5.980;2023-08-12T00:29:04;30.43;28.29;42.55;;
71020;Laerm;58902;51.436;5.980;2023-08-12T00:29:15;30.58;28.48;44.92;;
71020;Laerm;58902;51.436;5.980;2023-08-12T00:29:25;30.34;27.98;44.62;;
71020;Laerm;58902;51.436;5.980;2023-08-12T00:29:36;30.03;28.18;37.80;;
71020;Laerm;58902;51.436;5.980;2023-08-12T00:29:46;30.20;27.89;44.01;;
71020;Laerm;58902;51.436;5.980;2023-08-12T00:29:57;30.13;28.08;40.71;;
71020;Laerm;58902;51.436;5.980;2023-08-12T00:30:07;30.40;28.32;42.99;;
71020;Laerm;58902;51.436;5.980;2023-08-12T00:30:18;30.44;28.24;40.79;;
71020;Laerm;58902;51.436;5.980;2023-08-12T00:30:28;30.61;28.48;43.46;;
71020;Laerm;58902;51.436;5.980;2023-08-12T00:30:39;30.33;28.40;43.22;;
71020;Laerm;58902;51.436;5.980;2023-08-12T00:30:49;30.11;28.49;37.44;;
71020;Laerm;58902;51.436;5.980;2023-08-12T00:30:59;30.33;28.26;41.89;;
71020;Laerm;58902;51.436;5.980;2023-08-12T00:31:10;38.80;28.37;52.31;;
71020;Laerm;58902;51.436;5.980;2023-08-12T00:31:20;30.20;28.26;38.48;;
71020;Laerm;58902;51.436;5.980;2023-08-12T00:31:31;30.37;28.23;42.81;;
71020;Laerm;58902;51.436;5.980;2023-08-12T00:31:41;29.72;28.32;35.33;;
71020;Laerm;58902;51.436;5.980;2023-08-12T00:31:51;30.18;28.37;40.79;;
71020;Laerm;58902;51.436;5.980;2023-08-12T00:32:02;30.13;28.07;40.16;;
71020;Laerm;58902;51.436;5.980;2023-08-12T00:32:12;29.69;28.00;35.95;;
71020;Laerm;58902;51.436;5.980;2023-08-12T00:32:22;30.51;28.47;44.34;;
71020;Laerm;58902;51.436;5.980;2023-08-12T00:32:33;29.92;28.40;38.49;;
71020;Laerm;58902;51.436;5.980;2023-08-12T00:32:46;30.21;28.11;43.23;;
71020;Laerm;58902;51.436;5.980;2023-08-12T00:32:57;29.90;28.04;36.95;;
71020;Laerm;58902;51.436;5.980;2023-08-12T00:33:07;29.77;28.16;36.44;;
71020;Laerm;58902;51.436;5.980;2023-08-12T00:33:17;30.21;28.21;42.46;;
71020;Laerm;58902;51.436;5.980;2023-08-12T00:33:28;29.70;27.64;35.56;;
71020;Laerm;58902;51.436;5.980;2023-08-12T00:33:38;29.89;27.68;35.19;;
71020;Laerm;58902;51.436;5.980;2023-08-12T00:33:49;30.09;27.90;39.50;;
71020;Laerm;58902;51.436;5.980;2023-08-12T00:33:59;30.05;28.43;39.38;;
71020;Laerm;58902;51.436;5.980;2023-08-12T00:34:09;30.24;27.94;35.13;;
71020;Laerm;58902;51.436;5.980;2023-08-12T00:34:20;30.02;28.33;36.24;;
71020;Laerm;58902;51.436;5.980;2023-08-12T00:34:30;29.84;28.15;37.55;;
71020;Laerm;58902;51.436;5.980;2023-08-12T00:34:40;30.15;28.01;40.48;;
71020;Laerm;58902;51.436;5.980;2023-08-12T00:34:51;30.56;28.06;42.94;;
71020;Laerm;58902;51.436;5.980;2023-08-12T00:35:01;30.79;27.63;46.32;;
71020;Laerm;58902;51.436;5.980;2023-08-12T00:35:13;30.13;28.06;37.33;;
71020;Laerm;58902;51.436;5.980;2023-08-12T00:35:23;30.14;28.21;37.24;;
71020;Laerm;58902;51.436;5.980;2023-08-12T00:35:33;30.00;28.21;36.95;;
71020;Laerm;58902;51.436;5.980;2023-08-12T00:35:44;29.86;28.22;37.72;;
71020;Laerm;58902;51.436;5.980;2023-08-12T00:35:54;30.16;28.15;40.32;;
71020;Laerm;58902;51.436;5.980;2023-08-12T00:36:05;29.53;28.09;34.56;;
71020;Laerm;58902;51.436;5.980;2023-08-12T00:36:15;31.25;28.01;47.26;;
71020;Laerm;58902;51.436;5.980;2023-08-12T00:36:25;29.75;28.13;35.76;;
71020;Laerm;58902;51.436;5.980;2023-08-12T00:36:36;29.76;27.71;36.96;;
71020;Laerm;58902;51.436;5.980;2023-08-12T00:36:47;29.97;28.27;37.74;;
71020;Laerm;58902;51.436;5.980;2023-08-12T00:36:57;30.44;28.83;37.37;;
71020;Laerm;58902;51.436;5.980;2023-08-12T00:37:07;30.80;29.05;34.67;;
71020;Laerm;58902;51.436;5.980;2023-08-12T00:37:18;31.71;28.54;37.58;;
71020;Laerm;58902;51.436;5.980;2023-08-12T00:37:28;31.26;28.98;35.17;;
71020;Laerm;58902;51.436;5.980;2023-08-12T00:37:38;33.52;29.09;42.15;;
71020;Laerm;58902;51.436;5.980;2023-08-12T00:37:49;32.07;29.26;37.22;;
71020;Laerm;58902;51.436;5.980;2023-08-12T00:37:59;33.17;29.71;50.21;;
71020;Laerm;58902;51.436;5.980;2023-08-12T00:38:09;31.72;28.94;36.94;;
71020;Laerm;58902;51.436;5.980;2023-08-12T00:38:20;32.67;29.85;40.87;;
71020;Laerm;58902;51.436;5.980;2023-08-12T00:38:31;31.50;29.34;35.46;;
71020;Laerm;58902;51.436;5.980;2023-08-12T00:38:42;32.34;28.99;48.10;;
71020;Laerm;58902;51.436;5.980;2023-08-12T00:38:52;31.96;28.60;39.63;;
71020;Laerm;58902;51.436;5.980;2023-08-12T00:39:03;32.10;29.79;35.71;;
71020;Laerm;58902;51.436;5.980;2023-08-12T00:39:16;36.43;30.93;44.96;;
71020;Laerm;58902;51.436;5.980;2023-08-12T00:39:26;40.62;34.24;46.80;;
71020;Laerm;58902;51.436;5.980;2023-08-12T00:39:37;35.73;30.87;40.05;;
71020;Laerm;58902;51.436;5.980;2023-08-12T00:39:47;33.38;29.68;38.85;;
71020;Laerm;58902;51.436;5.980;2023-08-12T00:39:57;33.49;29.22;38.07;;
71020;Laerm;58902;51.436;5.980;2023-08-12T00:40:08;29.59;28.12;36.03;;
71020;Laerm;58902;51.436;5.980;2023-08-12T00:40:18;29.44;28.13;33.81;;
71020;Laerm;58902;51.436;5.980;2023-08-12T00:40:29;29.71;28.05;36.03;;
71020;Laerm;58902;51.436;5.980;2023-08-12T00:40:39;29.61;28.06;36.54;;
71020;Laerm;58902;51.436;5.980;2023-08-12T00:40:49;29.76;28.16;39.51;;
71020;Laerm;58902;51.436;5.980;2023-08-12T00:41:00;29.38;27.85;32.64;;
71020;Laerm;58902;51.436;5.980;2023-08-12T00:41:10;29.21;27.93;34.29;;
71020;Laerm;58902;51.436;5.980;2023-08-12T00:41:20;29.32;27.60;35.79;;
71020;Laerm;58902;51.436;5.980;2023-08-12T00:41:31;29.32;27.78;35.38;;
71020;Laerm;58902;51.436;5.980;2023-08-12T00:41:41;29.49;28.00;36.96;;
71020;Laerm;58902;51.436;5.980;2023-08-12T00:41:51;29.37;27.91;36.35;;
71020;Laerm;58902;51.436;5.980;2023-08-12T00:42:02;29.43;27.77;38.54;;
71020;Laerm;58902;51.436;5.980;2023-08-12T00:42:12;29.23;27.61;32.34;;
71020;Laerm;58902;51.436;5.980;2023-08-12T00:42:22;29.39;28.07;31.91;;
71020;Laerm;58902;51.436;5.980;2023-08-12T00:42:33;29.32;28.08;36.66;;
71020;Laerm;58902;51.436;5.980;2023-08-12T00:42:43;29.10;27.61;33.78;;
71020;Laerm;58902;51.436;5.980;2023-08-12T00:42:54;29.95;28.18;38.26;;
71020;Laerm;58902;51.436;5.980;2023-08-12T00:43:04;31.17;28.94;35.29;;
71020;Laerm;58902;51.436;5.980;2023-08-12T00:43:14;32.54;29.21;38.98;;
71020;Laerm;58902;51.436;5.980;2023-08-12T00:43:25;33.42;29.54;40.39;;
71020;Laerm;58902;51.436;5.980;2023-08-12T00:43:35;31.90;29.00;36.70;;
71020;Laerm;58902;51.436;5.980;2023-08-12T00:43:45;32.46;28.68;38.69;;
71020;Laerm;58902;51.436;5.980;2023-08-12T00:43:56;31.01;28.49;38.77;;
71020;Laerm;58902;51.436;5.980;2023-08-12T00:44:06;30.38;28.27;35.53;;
71020;Laerm;58902;51.436;5.980;2023-08-12T00:44:16;30.01;28.14;38.31;;
71020;Laerm;58902;51.436;5.980;2023-08-12T00:44:27;29.88;28.25;33.96;;
71020;Laerm;58902;51.436;5.980;2023-08-12T00:44:37;29.95;28.30;35.56;;
71020;Laerm;58902;51.436;5.980;2023-08-12T00:44:48;30.03;27.97;36.26;;
71020;Laerm;58902;51.436;5.980;2023-08-12T00:44:58;29.67;28.37;34.77;;
71020;Laerm;58902;51.436;5.980;2023-08-12T00:45:09;29.63;28.33;35.79;;
71020;Laerm;58902;51.436;5.980;2023-08-12T00:45:19;29.68;28.06;38.11;;
71020;Laerm;58902;51.436;5.980;2023-08-12T00:45:30;29.40;27.95;37.93;;
71020;Laerm;58902;51.436;5.980;2023-08-12T00:45:40;29.47;27.80;38.89;;
71020;Laerm;58902;51.436;5.980;2023-08-12T00:45:51;29.08;27.76;33.80;;
71020;Laerm;58902;51.436;5.980;2023-08-12T00:46:01;29.16;27.74;36.32;;
71020;Laerm;58902;51.436;5.980;2023-08-12T00:46:12;29.08;27.82;35.34;;
71020;Laerm;58902;51.436;5.980;2023-08-12T00:46:23;28.99;27.83;36.09;;
71020;Laerm;58902;51.436;5.980;2023-08-12T00:46:34;29.21;27.83;35.15;;
71020;Laerm;58902;51.436;5.980;2023-08-12T00:46:45;29.05;27.64;33.46;;
71020;Laerm;58902;51.436;5.980;2023-08-12T00:46:55;29.50;27.94;36.66;;
71020;Laerm;58902;51.436;5.980;2023-08-12T00:47:06;29.50;27.84;36.09;;
71020;Laerm;58902;51.436;5.980;2023-08-12T00:47:16;29.34;27.79;37.48;;
71020;Laerm;58902;51.436;5.980;2023-08-12T00:47:27;29.31;27.77;36.47;;
71020;Laerm;58902;51.436;5.980;2023-08-12T00:47:39;29.57;27.55;40.97;;
71020;Laerm;58902;51.436;5.980;2023-08-12T00:47:50;29.06;27.86;34.85;;
71020;Laerm;58902;51.436;5.980;2023-08-12T00:48:01;29.14;27.65;37.28;;
71020;Laerm;58902;51.436;5.980;2023-08-12T00:48:11;29.01;27.49;32.95;;
71020;Laerm;58902;51.436;5.980;2023-08-12T00:48:21;29.45;27.45;41.00;;
71020;Laerm;58902;51.436;5.980;2023-08-12T00:48:33;29.13;27.86;34.67;;
71020;Laerm;58902;51.436;5.980;2023-08-12T00:48:43;29.41;27.61;38.07;;
71020;Laerm;58902;51.436;5.980;2023-08-12T00:48:54;29.18;27.77;35.78;;
71020;Laerm;58902;51.436;5.980;2023-08-12T00:49:04;29.15;27.51;36.40;;
71020;Laerm;58902;51.436;5.980;2023-08-12T00:49:15;29.27;27.76;37.62;;
71020;Laerm;58902;51.436;5.980;2023-08-12T00:49:26;29.02;27.31;35.68;;
71020;Laerm;58902;51.436;5.980;2023-08-12T00:49:37;29.11;27.37;35.06;;
71020;Laerm;58902;51.436;5.980;2023-08-12T00:49:50;29.10;27.29;34.65;;
71020;Laerm;58902;51.436;5.980;2023-08-12T00:50:00;29.98;27.68;43.53;;
71020;Laerm;58902;51.436;5.980;2023-08-12T00:50:11;29.25;27.79;33.94;;
71020;Laerm;58902;51.436;5.980;2023-08-12T00:50:24;29.54;27.70;37.03;;
71020;Laerm;58902;51.436;5.980;2023-08-12T00:50:35;29.39;27.76;39.15;;
71020;Laerm;58902;51.436;5.980;2023-08-12T00:50:46;29.27;27.60;36.21;;
71020;Laerm;58902;51.436;5.980;2023-08-12T00:50:57;29.44;27.57;37.84;;
71020;Laerm;58902;51.436;5.980;2023-08-12T00:51:07;29.27;27.89;39.33;;
71020;Laerm;58902;51.436;5.980;2023-08-12T00:51:18;29.27;27.86;34.48;;
71020;Laerm;58902;51.436;5.980;2023-08-12T00:51:28;29.25;27.78;34.91;;
71020;Laerm;58902;51.436;5.980;2023-08-12T00:51:39;29.26;28.01;36.73;;
71020;Laerm;58902;51.436;5.980;2023-08-12T00:51:51;29.78;28.36;34.72;;
71020;Laerm;58902;51.436;5.980;2023-08-12T00:52:02;29.29;27.92;34.15;;
71020;Laerm;58902;51.436;5.980;2023-08-12T00:52:13;29.17;27.59;33.21;;
71020;Laerm;58902;51.436;5.980;2023-08-12T00:52:24;29.52;28.00;37.24;;
71020;Laerm;58902;51.436;5.980;2023-08-12T00:52:34;29.89;27.66;40.85;;
71020;Laerm;58902;51.436;5.980;2023-08-12T00:52:45;31.09;28.03;40.23;;
71020;Laerm;58902;51.436;5.980;2023-08-12T00:52:55;31.86;28.20;40.81;;
71020;Laerm;58902;51.436;5.980;2023-08-12T00:53:07;32.54;27.76;43.75;;
71020;Laerm;58902;51.436;5.980;2023-08-12T00:53:18;32.17;28.01;43.78;;
71020;Laerm;58902;51.436;5.980;2023-08-12T00:53:29;31.77;28.15;38.44;;
71020;Laerm;58902;51.436;5.980;2023-08-12T00:53:40;31.52;27.97;40.76;;
71020;Laerm;58902;51.436;5.980;2023-08-12T00:53:50;31.74;28.20;41.17;;
71020;Laerm;58902;51.436;5.980;2023-08-12T00:54:02;31.75;27.63;41.69;;
71020;Laerm;58902;51.436;5.980;2023-08-12T00:54:14;32.63;28.15;44.52;;
71020;Laerm;58902;51.436;5.980;2023-08-12T00:54:25;32.95;27.80;42.88;;
71020;Laerm;58902;51.436;5.980;2023-08-12T00:54:36;32.09;27.98;42.00;;
71020;Laerm;58902;51.436;5.980;2023-08-12T00:54:46;32.83;28.23;41.93;;
71020;Laerm;58902;51.436;5.980;2023-08-12T00:54:56;31.95;27.95;44.06;;
71020;Laerm;58902;51.436;5.980;2023-08-12T00:55:07;32.61;27.84;42.00;;
71020;Laerm;58902;51.436;5.980;2023-08-12T00:55:17;32.34;28.09;45.74;;
71020;Laerm;58902;51.436;5.980;2023-08-12T00:55:28;30.76;27.82;39.16;;
71020;Laerm;58902;51.436;5.980;2023-08-12T00:55:38;29.56;27.84;37.33;;
71020;Laerm;58902;51.436;5.980;2023-08-12T00:55:49;30.10;27.62;37.63;;
71020;Laerm;58902;51.436;5.980;2023-08-12T00:55:59;29.90;28.01;35.26;;
71020;Laerm;58902;51.436;5.980;2023-08-12T00:56:09;31.50;28.22;41.52;;
71020;Laerm;58902;51.436;5.980;2023-08-12T00:56:20;30.52;28.01;37.42;;
71020;Laerm;58902;51.436;5.980;2023-08-12T00:56:34;30.68;27.96;44.35;;
71020;Laerm;58902;51.436;5.980;2023-08-12T00:56:45;30.22;27.68;37.81;;
71020;Laerm;58902;51.436;5.980;2023-08-12T00:56:56;31.38;27.67;42.05;;
71020;Laerm;58902;51.436;5.980;2023-08-12T00:57:06;30.68;28.24;40.85;;
71020;Laerm;58902;51.436;5.980;2023-08-12T00:57:17;30.39;27.92;39.57;;
71020;Laerm;58902;51.436;5.980;2023-08-12T00:57:28;30.45;28.45;36.83;;
71020;Laerm;58902;51.436;5.980;2023-08-12T00:57:38;32.19;29.80;37.75;;
71020;Laerm;58902;51.436;5.980;2023-08-12T00:57:49;30.39;28.11;38.33;;
71020;Laerm;58902;51.436;5.980;2023-08-12T00:58:00;30.30;28.18;39.06;;
71020;Laerm;58902;51.436;5.980;2023-08-12T00:58:12;30.04;27.89;38.60;;
71020;Laerm;58902;51.436;5.980;2023-08-12T00:58:22;29.77;27.81;35.35;;
71020;Laerm;58902;51.436;5.980;2023-08-12T00:58:33;30.61;27.87;38.08;;
71020;Laerm;58902;51.436;5.980;2023-08-12T00:58:43;30.85;27.77;41.52;;
71020;Laerm;58902;51.436;5.980;2023-08-12T00:58:55;29.99;27.68;38.83;;
71020;Laerm;58902;51.436;5.980;2023-08-12T00:59:06;30.95;28.01;46.28;;
71020;Laerm;58902;51.436;5.980;2023-08-12T00:59:17;29.76;27.61;37.97;;
71020;Laerm;58902;51.436;5.980;2023-08-12T00:59:29;29.23;27.80;33.96;;
71020;Laerm;58902;51.436;5.980;2023-08-12T00:59:40;29.30;27.81;37.49;;